Warning: Javascript must be enabled to use all the features on this page!


Page Loading - Please Wait...

Click to hideNews Bulletins

Peak Streamflow for the Nation

USGS 09188500 GREEN RIVER AT WARREN BRIDGE, NEAR DANIEL, WY

Sublette County, Wyoming
Hydrologic Unit Code 14040101
Latitude  43°01'08.7", Longitude 110°07'07.9" NAD83
Drainage area 468  square miles
Gage datum 7,468.09 feet above NGVD29
Output formats
Table
Graph
Tab-separated file
peakfq (watstore) format
Reselect output format
Water
Year
Date Gage
Height
(feet)
Stream-
flow
(cfs)
1932 1932-06-26 5.08 3,510
1933 1933-06-15 4.86 2,920
1934 1934-05-21 3.14 1,110
1935 1935-06-15 5.03 3,120
1936 1936-06-03 4.83 3,080
1937 1937-06-24 4.52 2,650
1938 1938-06-24 4.57 2,630
1939 1939-06-01 3.87 1,890
1940 1940-06-17 3.80 1,720
1941 1941-06-25 4.43 2,490
1942 1942-06-11 4.72 2,890
1943 1943-06-28 4.90 3,260
1944 1944-06-28 4.73 3,020
1945 1945-06-25 4.27 2,320
1946 1946-06-11 4.11 2,100
1947 1947-05-11 4.49 2,630
1948 1948-06-10 4.69 2,910
1949 1949-06-13 4.59 2,770
1950 1950-07-04 4.93 3,180
1951 1951-06-19 4.93 3,180
1952 1952-06-09 4.86 2,960
1953 1953-06-16 5.38 4,080
1954 1954-06-29 5.49 4,460
1955 1955-06-25 4.25 2,280
1956 1956-06-03 5.35 4,030
1957 1957-06-07 5.27 3,720
1958 1958-05-27 4.39 2,430
1959 1959-06-17 5.56 4,420
1960 1960-06-05 3.90 1,730
1961 1961-05-30 4.08 2,020
1962 1962-06-28 4.97 3,350
1963 1963-06-17 4.71 2,840
1964 1964-07-01 4.87 3,100
1965 1965-06-26 5.16 3,940
1966 1966-05-10 4.08 2,100
1967 1967-07-06 4.94 3,360
1968 1968-06-24 4.66 2,820
1969 1969-06-09 4.41 2,430
1970 1970-05-31 4.83 3,090
1971 1971-06-25 5.74 4,780
1972 1972-06-09 5.77 4,840
1973 1973-05-19 5.11 2,670
1974 1974-06-19 5.66 4,230
1975 1975-07-07 5.28 3,800
1976 1976-06-10 4.51 2,590
1977 1977-06-10 4.25 2,170
1978 1978-06-17 4.55 2,620
1979 1979-05-29 4.29 2,330
1980 1980-05-24 4.56 2,640
1981 1981-06-11 4.66 2,650
1982 1982-06-30 5.05 3,460
1983 1983-07-10 4.74 2,920
1984 1984-07-02 4.62 2,730
1985 1985-06-10 4.12 1,990
1986 1986-06-06 5.65 5,490
1987 1987-05-19 3.922 1,870
1988 1988-06-07 4.30 2,440
1989 1989-06-17 4.03 2,100
1990 1990-06-27 4.29 2,390
1991 1991-06-14 4.70 3,020
1992 1992-05-22 3.43 1,400
1994 1994-05-14 4.06 1,910
1995 1995-07-13 5.04 3,6705
1996 1996-06-11 5.08 3,8805
1997 1997-06-11 6.04 5,9305
1998 1998-07-06 4.54 2,7605
1999 1999-06-22 4.85 3,2305
2000 2000-05-26 3.96 1,9705
2001 2001-05-17 4.03 2,0505
2002 2002-06-02 4.03 2,1005
2003 2003-06-02 4.67 3,1405
2004 2004-06-11 4.00 2,1705
2005 2005-06-25 4.54 2,9205
2006 2006-06-10 4.37 2,6405
2007 2007-06-07 3.60 1,5105
2008 2008-06-27 4.36 2,8405
2009 2009-06-03 4.64 3,1805
2010 2010-07-02 4.08 2,3205
2011 2011-07-01 5.19 4,1605
2012 2012-06-07 4.40 2,9905
2013 2013-06-12 3.89 2,1005
2014 2014-05-30 4.77 3,6105
2015 2015-06-03 4.19 2,5005
2016 2016-06-09 4.38 2,7905
2017 2017-06-19 5.77 5,6005
2018 2018-06-20 4.98 3,8105
2019 2019-06-09 4.12 3,0705
2020 2020-07-01 4.45 3,8105
2021 2021-06-08 3.86 2,5705
?
  Peak Gage-Height Qualification Codes.
?
  Peak Streamflow Qualification Codes.